Time;durP1;ratioP1;P1;durP2;ratioP2;P2;SDS_P1;SDS_P2;PMS_P1;PMS_P2;Temp;Humidity;BMP_temperature;BMP_pressure;BME280_temperature;BME280_humidity;BME280_pressure;Samples;Min_cycle;Max_cycle;Signal;HPM_P1;HPM_P2
2021/11/22 00:01:46;;;;;;;;;6.75;6.75;;;;;;;;5071330;27;49668;-71
2021/11/22 00:04:11;;;;;;;;;6.50;6.50;;;;;;;;5071120;28;49925;-71
2021/11/22 00:06:37;;;;;;;;;11.00;6.50;;;;;;;;5071369;27;49699;-71
2021/11/22 00:09:02;;;;;;;;;13.50;11.25;;;;;;;;5070988;27;50393;-70
2021/11/22 00:11:28;;;;;;;;;10.50;10.00;;;;;;;;5071046;27;49748;-71
2021/11/22 00:13:53;;;;;;;;;5.75;5.75;;;;;;;;5071343;27;49573;-70
2021/11/22 00:16:18;;;;;;;;;5.00;4.50;;;;;;;;5071176;27;49605;-70
2021/11/22 00:18:44;;;;;;;;;11.25;8.75;;;;;;;;5070755;27;49750;-70
2021/11/22 00:21:09;;;;;;;;;19.25;10.50;;;;;;;;5070896;27;49662;-71
2021/11/22 00:23:35;;;;;;;;;9.50;7.50;;;;;;;;5070971;27;49806;-70
2021/11/22 00:26:00;;;;;;;;;10.25;7.25;;;;;;;;5071220;28;49837;-71
2021/11/22 00:28:25;;;;;;;;;12.25;6.75;;;;;;;;5070799;28;49798;-72
2021/11/22 00:30:50;;;;;;;;;10.25;9.50;;;;;;;;5070612;27;49766;-70
2021/11/22 00:33:16;;;;;;;;;6.00;6.00;;;;;;;;5070662;27;49625;-70
2021/11/22 00:35:46;;;;;;;;;11.75;9.00;;;;;;;;5071142;27;49759;-70
2021/11/22 00:38:11;;;;;;;;;7.75;7.25;;;;;;;;5070557;27;50693;-70
2021/11/22 00:40:37;;;;;;;;;10.25;6.75;;;;;;;;5071037;27;49908;-71
2021/11/22 00:43:02;;;;;;;;;8.75;7.25;;;;;;;;5070691;27;49720;-73
2021/11/22 00:45:28;;;;;;;;;9.00;9.00;;;;;;;;5070761;27;49770;-74
2021/11/22 00:47:54;;;;;;;;;10.25;7.25;;;;;;;;5070873;28;49943;-71
2021/11/22 00:50:20;;;;;;;;;8.50;5.00;;;;;;;;5070669;27;49929;-71
2021/11/22 00:52:45;;;;;;;;;8.25;8.25;;;;;;;;5070708;27;49660;-69
2021/11/22 00:55:10;;;;;;;;;12.25;8.00;;;;;;;;5070908;28;49759;-69
2021/11/22 00:57:36;;;;;;;;;12.50;10.50;;;;;;;;5070334;27;50461;-69
2021/11/22 01:00:01;;;;;;;;;10.50;7.00;;;;;;;;5070756;27;49708;-70
2021/11/22 01:02:27;;;;;;;;;8.00;6.50;;;;;;;;5070299;27;49894;-70
2021/11/22 01:04:52;;;;;;;;;1.50;1.50;;;;;;;;5071726;27;49839;-69
2021/11/22 01:07:18;;;;;;;;;7.00;7.00;;;;;;;;5073695;28;50535;-70
2021/11/22 01:09:43;;;;;;;;;7.50;6.25;;;;;;;;5073905;27;49694;-70
2021/11/22 01:12:09;;;;;;;;;3.50;3.50;;;;;;;;5074020;27;49740;-69
2021/11/22 01:14:36;;;;;;;;;6.50;5.00;;;;;;;;5074036;27;49846;-69
2021/11/22 01:17:01;;;;;;;;;6.50;6.00;;;;;;;;5073677;27;50310;-69
2021/11/22 01:19:26;;;;;;;;;11.25;8.25;;;;;;;;5073695;27;49814;-69
2021/11/22 01:21:52;;;;;;;;;6.00;6.00;;;;;;;;5073432;27;49922;-69
2021/11/22 01:24:17;;;;;;;;;7.25;4.75;;;;;;;;5073850;27;49614;-69
2021/11/22 01:26:42;;;;;;;;;5.00;5.00;;;;;;;;5073495;28;49662;-70
2021/11/22 01:29:08;;;;;;;;;10.75;8.75;;;;;;;;5071985;28;49657;-69
2021/11/22 01:31:33;;;;;;;;;6.25;6.25;;;;;;;;5072264;28;49728;-69
2021/11/22 01:33:58;;;;;;;;;6.75;6.75;;;;;;;;5072246;28;50119;-70
2021/11/22 01:36:24;;;;;;;;;11.75;8.00;;;;;;;;5073648;28;49980;-69
2021/11/22 01:38:49;;;;;;;;;8.25;5.50;;;;;;;;5073419;27;49639;-70
2021/11/22 01:41:14;;;;;;;;;8.25;6.75;;;;;;;;5073432;27;49659;-69
2021/11/22 01:43:39;;;;;;;;;4.75;2.00;;;;;;;;5073446;28;49710;-69
2021/11/22 01:46:05;;;;;;;;;8.75;6.25;;;;;;;;5073311;28;49911;-69
2021/11/22 01:48:30;;;;;;;;;5.25;5.00;;;;;;;;5073162;27;49927;-69
2021/11/22 01:50:55;;;;;;;;;6.25;6.00;;;;;;;;5073442;28;49839;-69
2021/11/22 01:53:22;;;;;;;;;9.75;5.25;;;;;;;;5073382;27;49922;-69
2021/11/22 01:55:48;;;;;;;;;6.75;5.75;;;;;;;;5072960;27;49710;-70
2021/11/22 01:58:13;;;;;;;;;9.25;6.25;;;;;;;;5073026;27;49813;-69
2021/11/22 02:00:43;;;;;;;;;11.50;9.50;;;;;;;;5073566;27;49869;-70
2021/11/22 02:03:09;;;;;;;;;6.50;6.50;;;;;;;;5073079;27;49765;-70
2021/11/22 02:05:35;;;;;;;;;7.00;6.50;;;;;;;;5072876;28;50304;-69
2021/11/22 02:08:01;;;;;;;;;6.50;6.50;;;;;;;;5072940;27;49940;-70
2021/11/22 02:10:26;;;;;;;;;9.50;7.50;;;;;;;;5072879;27;49581;-69
2021/11/22 02:12:51;;;;;;;;;7.50;6.75;;;;;;;;5073123;27;49877;-69
2021/11/22 02:15:18;;;;;;;;;9.25;7.50;;;;;;;;5072655;27;50282;-70
2021/11/22 02:17:44;;;;;;;;;10.75;5.00;;;;;;;;5072250;27;49815;-69
2021/11/22 02:20:14;;;;;;;;;3.50;3.00;;;;;;;;5072617;27;49599;-69
2021/11/22 02:22:43;;;;;;;;;9.50;6.25;;;;;;;;5073110;27;49851;-69
2021/11/22 02:25:09;;;;;;;;;11.25;9.50;;;;;;;;5072425;27;50539;-69
2021/11/22 02:27:36;;;;;;;;;12.25;9.50;;;;;;;;5072874;28;49700;-69
2021/11/22 02:30:02;;;;;;;;;5.25;5.25;;;;;;;;5072792;27;49873;-69
2021/11/22 02:32:28;;;;;;;;;6.50;5.75;;;;;;;;5072794;27;49915;-70
2021/11/22 02:34:54;;;;;;;;;13.25;6.50;;;;;;;;5071004;28;51661;-70
2021/11/22 02:37:19;;;;;;;;;10.50;6.75;;;;;;;;5072472;27;49787;-69
2021/11/22 02:39:44;;;;;;;;;8.50;7.00;;;;;;;;5072460;28;49747;-70
2021/11/22 02:42:29;;;;;;;;;9.00;7.00;;;;;;;;5072737;27;49620;-69
2021/11/22 02:44:56;;;;;;;;;11.00;7.25;;;;;;;;5072277;27;49809;-69
2021/11/22 02:47:21;;;;;;;;;6.75;6.25;;;;;;;;5072232;28;49783;-70
2021/11/22 02:49:47;;;;;;;;;6.00;6.00;;;;;;;;5072169;27;49675;-69
2021/11/22 02:52:12;;;;;;;;;6.75;6.75;;;;;;;;5072287;28;49581;-69
2021/11/22 02:54:38;;;;;;;;;7.00;4.50;;;;;;;;5071850;27;50443;-69
2021/11/22 02:57:03;;;;;;;;;8.75;6.50;;;;;;;;5072095;27;49668;-69
2021/11/22 02:59:28;;;;;;;;;5.00;5.00;;;;;;;;5072561;27;49979;-69
2021/11/22 03:01:53;;;;;;;;;2.50;2.50;;;;;;;;5072226;27;49657;-69
2021/11/22 03:04:19;;;;;;;;;5.00;5.00;;;;;;;;5071987;27;50900;-70
2021/11/22 03:06:45;;;;;;;;;6.50;6.25;;;;;;;;5071849;27;49743;-70
2021/11/22 03:09:11;;;;;;;;;7.00;7.00;;;;;;;;5071960;27;49781;-71
2021/11/22 03:11:36;;;;;;;;;8.75;6.00;;;;;;;;5072022;27;49885;-70
2021/11/22 03:14:01;;;;;;;;;9.25;6.75;;;;;;;;5071658;27;50669;-70
2021/11/22 03:16:29;;;;;;;;;5.00;5.00;;;;;;;;5072061;28;49704;-70
2021/11/22 03:18:55;;;;;;;;;6.00;6.00;;;;;;;;5071658;27;49798;-69
2021/11/22 03:21:20;;;;;;;;;7.00;7.00;;;;;;;;5071588;27;49774;-70
2021/11/22 03:23:45;;;;;;;;;9.75;8.25;;;;;;;;5071487;27;50611;-71
2021/11/22 03:26:11;;;;;;;;;13.25;9.50;;;;;;;;5071669;27;50359;-69
2021/11/22 03:28:36;;;;;;;;;6.75;6.75;;;;;;;;5070459;27;49676;-70
2021/11/22 03:31:02;;;;;;;;;9.00;7.00;;;;;;;;5071823;28;49669;-69
2021/11/22 03:33:28;;;;;;;;;10.00;5.00;;;;;;;;5070953;28;50458;-69
2021/11/22 03:35:55;;;;;;;;;13.75;9.25;;;;;;;;5071592;28;49720;-69
2021/11/22 03:38:21;;;;;;;;;8.00;6.25;;;;;;;;5071616;27;49786;-69
2021/11/22 03:40:47;;;;;;;;;10.00;9.00;;;;;;;;5071785;28;49506;-69
2021/11/22 03:43:15;;;;;;;;;12.75;7.50;;;;;;;;5071383;28;50372;-69
2021/11/22 03:45:42;;;;;;;;;10.00;10.00;;;;;;;;5071337;27;49598;-69
2021/11/22 03:48:07;;;;;;;;;11.50;8.50;;;;;;;;5071323;28;49681;-69
2021/11/22 03:50:33;;;;;;;;;8.00;6.50;;;;;;;;5071595;27;49670;-71
2021/11/22 03:52:58;;;;;;;;;10.50;9.25;;;;;;;;5069753;28;51308;-69
2021/11/22 03:55:24;;;;;;;;;10.25;10.25;;;;;;;;5071281;27;49549;-69
2021/11/22 03:57:49;;;;;;;;;8.00;7.00;;;;;;;;5071362;28;49815;-70
2021/11/22 04:00:16;;;;;;;;;10.25;9.50;;;;;;;;5071835;27;49855;-70
2021/11/22 04:02:41;;;;;;;;;9.00;9.00;;;;;;;;5070937;27;50644;-69
2021/11/22 04:05:06;;;;;;;;;16.50;10.75;;;;;;;;5070732;28;49561;-70
2021/11/22 04:07:32;;;;;;;;;10.00;7.00;;;;;;;;5071173;27;49790;-70
2021/11/22 04:09:57;;;;;;;;;8.50;7.75;;;;;;;;5071567;27;49629;-69
2021/11/22 04:12:23;;;;;;;;;5.00;1.50;;;;;;;;5070948;28;50286;-69
2021/11/22 04:14:48;;;;;;;;;10.75;9.75;;;;;;;;5071012;27;49600;-70
2021/11/22 04:17:13;;;;;;;;;9.00;6.75;;;;;;;;5070997;27;49712;-69
2021/11/22 04:19:39;;;;;;;;;8.00;7.00;;;;;;;;5070849;28;50068;-70
2021/11/22 04:22:04;;;;;;;;;7.00;6.00;;;;;;;;5069291;28;50526;-69
2021/11/22 04:24:29;;;;;;;;;9.25;9.25;;;;;;;;5070823;28;49817;-69
2021/11/22 04:26:54;;;;;;;;;13.75;10.00;;;;;;;;5070944;27;49641;-69
2021/11/22 04:29:20;;;;;;;;;10.75;9.25;;;;;;;;5071169;27;49813;-69
2021/11/22 04:31:45;;;;;;;;;12.00;10.25;;;;;;;;5070838;28;49943;-69
2021/11/22 04:34:10;;;;;;;;;9.50;7.50;;;;;;;;5070157;27;49682;-69
2021/11/22 04:36:35;;;;;;;;;1.75;1.75;;;;;;;;5070704;28;49757;-69
2021/11/22 04:39:01;;;;;;;;;8.50;8.50;;;;;;;;5071583;27;49600;-69
2021/11/22 04:41:26;;;;;;;;;10.00;9.00;;;;;;;;5077258;28;50308;-69
2021/11/22 04:43:53;;;;;;;;;5.25;5.25;;;;;;;;5077442;27;49618;-69
2021/11/22 04:46:18;;;;;;;;;9.25;8.50;;;;;;;;5077478;27;49692;-70
2021/11/22 04:48:43;;;;;;;;;12.00;9.50;;;;;;;;5077388;27;49761;-70
2021/11/22 04:51:08;;;;;;;;;10.50;7.50;;;;;;;;5077160;28;50499;-69
2021/11/22 04:53:34;;;;;;;;;12.75;7.50;;;;;;;;5077241;27;49684;-70
2021/11/22 04:55:59;;;;;;;;;10.25;8.75;;;;;;;;5077292;28;49854;-70
2021/11/22 04:58:24;;;;;;;;;9.25;8.50;;;;;;;;5077485;27;49560;-75
2021/11/22 05:00:49;;;;;;;;;11.50;11.00;;;;;;;;5076997;27;49780;-69
2021/11/22 05:03:15;;;;;;;;;9.00;9.00;;;;;;;;5076920;27;49607;-69
2021/11/22 05:05:40;;;;;;;;;15.25;12.00;;;;;;;;5077416;27;49825;-70
2021/11/22 05:08:06;;;;;;;;;14.75;13.75;;;;;;;;5077347;27;49648;-69
2021/11/22 05:10:33;;;;;;;;;10.75;8.00;;;;;;;;5076850;27;49821;-69
2021/11/22 05:12:59;;;;;;;;;11.75;10.00;;;;;;;;5076967;27;49683;-69
2021/11/22 05:15:24;;;;;;;;;10.75;9.25;;;;;;;;5076938;27;50042;-69
2021/11/22 05:17:49;;;;;;;;;13.00;11.75;;;;;;;;5076854;28;49653;-69
2021/11/22 05:20:14;;;;;;;;;8.00;7.00;;;;;;;;5076915;27;51054;-69
2021/11/22 05:22:40;;;;;;;;;5.50;3.25;;;;;;;;5075331;28;49924;-69
2021/11/22 05:25:05;;;;;;;;;14.50;14.25;;;;;;;;5076961;27;50112;-69
2021/11/22 05:27:30;;;;;;;;;12.00;12.00;;;;;;;;5077019;27;49794;-69
2021/11/22 05:29:56;;;;;;;;;13.25;13.25;;;;;;;;5076556;27;50580;-71
2021/11/22 05:32:21;;;;;;;;;14.00;13.00;;;;;;;;5076638;27;49746;-70
2021/11/22 05:34:52;;;;;;;;;12.00;10.50;;;;;;;;5076462;28;49619;-70
2021/11/22 05:37:18;;;;;;;;;12.00;10.25;;;;;;;;5077503;27;49914;-70
2021/11/22 05:39:44;;;;;;;;;13.00;10.50;;;;;;;;5076657;27;50254;-70
2021/11/22 05:42:09;;;;;;;;;13.25;13.25;;;;;;;;5077107;28;50039;-69
2021/11/22 05:44:35;;;;;;;;;14.25;14.25;;;;;;;;5076758;27;49607;-69
2021/11/22 05:47:01;;;;;;;;;17.00;13.75;;;;;;;;5075307;28;49748;-70
2021/11/22 05:49:30;;;;;;;;;13.50;13.50;;;;;;;;5076115;28;50323;-70
2021/11/22 05:51:55;;;;;;;;;18.25;18.00;;;;;;;;5071756;28;49640;-69
2021/11/22 05:54:22;;;;;;;;;21.25;19.50;;;;;;;;5073358;28;49698;-69
2021/11/22 05:56:47;;;;;;;;;28.00;25.25;;;;;;;;5073563;27;49560;-69
2021/11/22 05:59:12;;;;;;;;;18.75;18.25;;;;;;;;5073434;27;50001;-69
2021/11/22 06:01:38;;;;;;;;;25.25;21.25;;;;;;;;5073126;27;50141;-70
2021/11/22 06:04:03;;;;;;;;;29.25;25.75;;;;;;;;5073406;28;50156;-70
2021/11/22 06:06:28;;;;;;;;;18.00;14.75;;;;;;;;5073041;27;49743;-69
2021/11/22 06:08:53;;;;;;;;;31.00;25.25;;;;;;;;5072978;28;50367;-69
2021/11/22 06:11:19;;;;;;;;;27.00;23.50;;;;;;;;5072993;27;49593;-69
2021/11/22 06:13:44;;;;;;;;;26.75;22.50;;;;;;;;5072561;27;49937;-69
2021/11/22 06:16:09;;;;;;;;;29.25;26.00;;;;;;;;5073091;27;49766;-69
2021/11/22 06:18:34;;;;;;;;;26.75;24.25;;;;;;;;5072437;28;50299;-70
2021/11/22 06:20:59;;;;;;;;;26.75;26.75;;;;;;;;5073008;27;49993;-69
2021/11/22 06:23:25;;;;;;;;;35.50;28.50;;;;;;;;5072697;27;49656;-70
2021/11/22 06:25:50;;;;;;;;;29.75;28.75;;;;;;;;5073017;27;49587;-69
2021/11/22 06:28:15;;;;;;;;;30.00;26.00;;;;;;;;5072951;27;50445;-70
2021/11/22 06:30:41;;;;;;;;;25.75;24.25;;;;;;;;5072547;28;49681;-70
2021/11/22 06:33:06;;;;;;;;;24.00;19.50;;;;;;;;5072362;27;49611;-71
2021/11/22 06:35:33;;;;;;;;;31.25;28.00;;;;;;;;5072956;27;49693;-72
2021/11/22 06:38:01;;;;;;;;;25.00;22.25;;;;;;;;5073057;27;49795;-70
2021/11/22 06:40:26;;;;;;;;;24.25;22.50;;;;;;;;5075471;28;49794;-70
2021/11/22 06:42:51;;;;;;;;;31.00;26.25;;;;;;;;5072197;27;49857;-68
2021/11/22 06:45:18;;;;;;;;;34.75;30.00;;;;;;;;5072124;28;49663;-73
2021/11/22 06:47:43;;;;;;;;;23.50;19.50;;;;;;;;5072073;27;50485;-71
2021/11/22 06:50:08;;;;;;;;;19.75;17.75;;;;;;;;5072144;27;49824;-73
2021/11/22 06:52:34;;;;;;;;;22.75;22.75;;;;;;;;5072352;27;49707;-69
2021/11/22 06:54:59;;;;;;;;;19.00;18.25;;;;;;;;5072513;27;49799;-71
2021/11/22 06:57:25;;;;;;;;;18.50;15.00;;;;;;;;5070566;28;52605;-71
2021/11/22 06:59:50;;;;;;;;;22.25;17.75;;;;;;;;5071677;27;49747;-69
2021/11/22 07:02:16;;;;;;;;;20.75;17.25;;;;;;;;5071373;27;49852;-69
2021/11/22 07:04:41;;;;;;;;;23.00;19.75;;;;;;;;5072333;27;49688;-83
2021/11/22 07:07:07;;;;;;;;;18.75;17.00;;;;;;;;5070718;28;49856;-66
2021/11/22 07:09:33;;;;;;;;;21.25;17.00;;;;;;;;5072204;27;50211;-67
2021/11/22 07:11:58;;;;;;;;;13.25;13.25;;;;;;;;5072317;27;49851;-62
2021/11/22 07:14:23;;;;;;;;;23.00;19.00;;;;;;;;5072145;27;49815;-65
2021/11/22 07:16:53;;;;;;;;;18.75;18.75;;;;;;;;5071819;27;49647;-65
2021/11/22 07:19:18;;;;;;;;;24.25;22.25;;;;;;;;5071541;27;49679;-65
2021/11/22 07:21:43;;;;;;;;;18.25;16.75;;;;;;;;5071763;28;49802;-64
2021/11/22 07:24:09;;;;;;;;;17.25;15.25;;;;;;;;5072007;27;49664;-62
2021/11/22 07:26:34;;;;;;;;;16.75;15.50;;;;;;;;5072015;27;49730;-60
2021/11/22 07:28:59;;;;;;;;;22.75;20.25;;;;;;;;5071624;28;50077;-64
2021/11/22 07:31:24;;;;;;;;;11.75;10.00;;;;;;;;5072340;27;49926;-62
2021/11/22 07:33:50;;;;;;;;;21.25;18.00;;;;;;;;5071607;27;49639;-63
2021/11/22 07:36:15;;;;;;;;;18.25;16.75;;;;;;;;5071727;28;50498;-62
2021/11/22 07:38:40;;;;;;;;;18.00;15.00;;;;;;;;5071558;27;49651;-66
2021/11/22 07:41:05;;;;;;;;;18.00;16.00;;;;;;;;5071582;27;49605;-66
2021/11/22 07:43:31;;;;;;;;;15.75;15.75;;;;;;;;5071639;28;49786;-62
2021/11/22 07:45:56;;;;;;;;;22.00;17.00;;;;;;;;5071846;27;50865;-63
2021/11/22 07:48:22;;;;;;;;;17.25;15.50;;;;;;;;5071127;28;49806;-63
2021/11/22 07:50:47;;;;;;;;;18.25;15.00;;;;;;;;5059646;27;50015;-65
2021/11/22 07:53:12;;;;;;;;;21.00;15.25;;;;;;;;5069288;27;49734;-65
2021/11/22 07:55:37;;;;;;;;;14.50;14.50;;;;;;;;5066149;27;49718;-65
2021/11/22 07:58:02;;;;;;;;;18.75;15.50;;;;;;;;5079867;28;50008;-66
2021/11/22 08:00:28;;;;;;;;;17.00;15.50;;;;;;;;5079542;27;49751;-64
2021/11/22 08:02:54;;;;;;;;;16.00;16.00;;;;;;;;5069659;28;50244;-66
2021/11/22 08:05:20;;;;;;;;;22.50;20.00;;;;;;;;5072598;27;50457;-64
2021/11/22 08:07:45;;;;;;;;;15.75;15.25;;;;;;;;5067668;28;49748;-66
2021/11/22 08:10:18;;;;;;;;;15.25;15.25;;;;;;;;5071470;27;50123;-63
2021/11/22 08:12:43;;;;;;;;;14.75;13.75;;;;;;;;5077636;27;49767;-64
2021/11/22 08:15:12;;;;;;;;;18.50;15.75;;;;;;;;5073160;27;49833;-64
2021/11/22 08:17:39;;;;;;;;;12.50;11.00;;;;;;;;5080065;27;49791;-64
2021/11/22 08:20:05;;;;;;;;;11.00;10.75;;;;;;;;5071401;28;49635;-64
2021/11/22 08:22:30;;;;;;;;;18.00;15.00;;;;;;;;5071919;28;49601;-64
2021/11/22 08:24:56;;;;;;;;;16.00;14.50;;;;;;;;5071976;27;50046;-64
2021/11/22 08:27:23;;;;;;;;;18.00;17.75;;;;;;;;5076628;27;49662;-63
2021/11/22 08:29:49;;;;;;;;;10.25;8.25;;;;;;;;5076773;28;49773;-65
2021/11/22 08:32:14;;;;;;;;;16.00;14.00;;;;;;;;5072818;28;49562;-64
2021/11/22 08:34:40;;;;;;;;;12.50;11.75;;;;;;;;5070115;27;49894;-63
2021/11/22 08:37:05;;;;;;;;;11.50;9.75;;;;;;;;5070320;28;49907;-64
2021/11/22 08:39:30;;;;;;;;;13.75;13.00;;;;;;;;5068968;27;49578;-64
2021/11/22 08:41:55;;;;;;;;;10.00;10.00;;;;;;;;5069367;28;49635;-64
2021/11/22 08:44:21;;;;;;;;;14.75;13.75;;;;;;;;5070749;28;49629;-63
2021/11/22 08:46:47;;;;;;;;;16.00;13.00;;;;;;;;5070428;28;49734;-64
2021/11/22 08:49:13;;;;;;;;;11.50;11.50;;;;;;;;5069884;27;49786;-64
2021/11/22 08:51:38;;;;;;;;;17.00;15.50;;;;;;;;5067253;28;50076;-64
2021/11/22 08:54:03;;;;;;;;;15.50;15.00;;;;;;;;5070108;28;49945;-64
2021/11/22 08:56:29;;;;;;;;;12.50;12.50;;;;;;;;5070430;27;49732;-64
2021/11/22 08:58:54;;;;;;;;;12.00;12.00;;;;;;;;5071693;27;49762;-65
2021/11/22 09:01:19;;;;;;;;;10.25;10.25;;;;;;;;5071518;27;49963;-63
2021/11/22 09:03:44;;;;;;;;;12.50;12.50;;;;;;;;5071934;28;50039;-64
2021/11/22 09:06:10;;;;;;;;;12.25;12.25;;;;;;;;5072154;28;49678;-64
2021/11/22 09:08:35;;;;;;;;;11.75;10.75;;;;;;;;5074394;28;49667;-66
2021/11/22 09:11:01;;;;;;;;;9.75;7.25;;;;;;;;5072731;28;50079;-64
2021/11/22 09:13:26;;;;;;;;;12.00;11.75;;;;;;;;5072551;27;50146;-64
2021/11/22 09:15:52;;;;;;;;;8.25;8.25;;;;;;;;5071299;27;49618;-63
2021/11/22 09:18:17;;;;;;;;;10.25;10.25;;;;;;;;5073153;27;49591;-65
2021/11/22 09:20:42;;;;;;;;;9.50;7.00;;;;;;;;5068867;27;49690;-64
2021/11/22 09:23:08;;;;;;;;;12.50;10.50;;;;;;;;5072326;27;50229;-64
2021/11/22 09:25:35;;;;;;;;;7.25;7.25;;;;;;;;5072805;28;49758;-64
2021/11/22 09:28:00;;;;;;;;;10.50;10.00;;;;;;;;5080506;27;49679;-64
2021/11/22 09:30:26;;;;;;;;;7.75;5.75;;;;;;;;5085307;28;49741;-64
2021/11/22 09:32:51;;;;;;;;;5.75;5.75;;;;;;;;5081459;27;49528;-65
2021/11/22 09:35:16;;;;;;;;;9.00;7.25;;;;;;;;5078017;27;49813;-64
2021/11/22 09:37:42;;;;;;;;;9.50;6.75;;;;;;;;5076372;28;49646;-64
2021/11/22 09:40:08;;;;;;;;;10.50;10.50;;;;;;;;5075242;28;49996;-64
2021/11/22 09:42:33;;;;;;;;;7.50;7.50;;;;;;;;5082822;28;49972;-63
2021/11/22 09:44:58;;;;;;;;;12.50;11.25;;;;;;;;5079083;27;49655;-63
2021/11/22 09:47:24;;;;;;;;;10.50;10.50;;;;;;;;5075142;28;49984;-63
2021/11/22 09:49:54;;;;;;;;;6.00;5.00;;;;;;;;5076955;28;49443;-63
2021/11/22 09:52:19;;;;;;;;;6.00;6.00;;;;;;;;5079762;27;49947;-63
2021/11/22 09:54:44;;;;;;;;;10.00;7.25;;;;;;;;5070445;27;49690;-65
2021/11/22 09:57:12;;;;;;;;;8.00;7.50;;;;;;;;5072942;28;49769;-65
2021/11/22 09:59:37;;;;;;;;;8.25;6.75;;;;;;;;5073363;28;49771;-65
2021/11/22 10:02:02;;;;;;;;;2.00;2.00;;;;;;;;5072914;28;49679;-65
2021/11/22 10:04:29;;;;;;;;;11.25;9.50;;;;;;;;5072748;27;49474;-64
2021/11/22 10:07:02;;;;;;;;;8.50;8.25;;;;;;;;5072813;27;49736;-66
2021/11/22 10:09:30;;;;;;;;;8.25;6.50;;;;;;;;5073386;28;49977;-65
2021/11/22 10:11:56;;;;;;;;;10.00;7.00;;;;;;;;5072749;27;49808;-65
2021/11/22 10:14:25;;;;;;;;;1.00;1.00;;;;;;;;5072945;28;49928;-66
2021/11/22 10:16:50;;;;;;;;;7.00;7.00;;;;;;;;5073028;28;49676;-66
2021/11/22 10:19:18;;;;;;;;;8.00;6.25;;;;;;;;5072722;28;49777;-67
2021/11/22 10:21:43;;;;;;;;;7.50;6.25;;;;;;;;5072380;28;49827;-68
2021/11/22 10:24:10;;;;;;;;;10.00;8.25;;;;;;;;5072771;28;49548;-66
2021/11/22 10:26:37;;;;;;;;;9.25;8.00;;;;;;;;5072844;28;49740;-66
2021/11/22 10:29:03;;;;;;;;;8.00;8.00;;;;;;;;5072851;28;49655;-65
2021/11/22 10:31:29;;;;;;;;;7.75;7.75;;;;;;;;5072522;28;50439;-65
2021/11/22 10:33:58;;;;;;;;;14.00;10.00;;;;;;;;5072679;27;49764;-65
2021/11/22 10:36:25;;;;;;;;;10.25;9.00;;;;;;;;5072832;27;49820;-65
2021/11/22 10:38:52;;;;;;;;;9.75;8.00;;;;;;;;5072175;28;49835;-65
2021/11/22 10:41:20;;;;;;;;;7.00;6.50;;;;;;;;5072463;28;49825;-65
2021/11/22 10:43:53;;;;;;;;;7.75;6.00;;;;;;;;5072340;28;49778;-65
2021/11/22 10:46:27;;;;;;;;;6.25;6.25;;;;;;;;5071178;28;49801;-65
2021/11/22 10:48:53;;;;;;;;;2.00;1.00;;;;;;;;5072443;27;49793;-64
2021/11/22 10:51:38;;;;;;;;;9.00;8.00;;;;;;;;5072189;27;49745;-65
2021/11/22 10:54:04;;;;;;;;;8.00;8.00;;;;;;;;5072330;28;49831;-65
2021/11/22 10:56:35;;;;;;;;;9.00;6.50;;;;;;;;5072665;28;49895;-65
2021/11/22 10:59:12;;;;;;;;;10.75;9.25;;;;;;;;5072373;27;49688;-65
2021/11/22 11:01:54;;;;;;;;;6.75;6.75;;;;;;;;5072180;27;50248;-64
2021/11/22 11:04:20;;;;;;;;;10.00;8.50;;;;;;;;5071821;27;49814;-64
2021/11/22 11:06:57;;;;;;;;;10.50;9.50;;;;;;;;5072184;27;49626;-66
2021/11/22 11:09:27;;;;;;;;;5.00;5.00;;;;;;;;5072241;28;49727;-65
2021/11/22 11:12:01;;;;;;;;;7.50;6.25;;;;;;;;5072197;27;50333;-66
2021/11/22 11:14:28;;;;;;;;;10.00;8.00;;;;;;;;5071964;27;49668;-69
2021/11/22 11:16:54;;;;;;;;;7.25;6.25;;;;;;;;5072224;28;49674;-70
2021/11/22 11:19:19;;;;;;;;;3.50;3.50;;;;;;;;5071939;28;50011;-65
2021/11/22 11:21:48;;;;;;;;;7.25;6.25;;;;;;;;5071666;28;49690;-67
2021/11/22 11:24:15;;;;;;;;;5.00;4.50;;;;;;;;5071741;28;49719;-66
2021/11/22 11:26:41;;;;;;;;;6.75;6.00;;;;;;;;5071772;28;49793;-65
2021/11/22 11:29:07;;;;;;;;;8.00;6.50;;;;;;;;5071818;28;49857;-64
2021/11/22 11:31:34;;;;;;;;;9.50;7.25;;;;;;;;5071445;27;50835;-70
2021/11/22 11:34:02;;;;;;;;;15.75;10.50;;;;;;;;5071586;27;49731;-66
2021/11/22 11:36:36;;;;;;;;;6.25;5.00;;;;;;;;5071187;27;49765;-69
2021/11/22 11:39:20;;;;;;;;;6.00;4.00;;;;;;;;5071832;28;49696;-71
2021/11/22 11:41:48;;;;;;;;;11.00;10.00;;;;;;;;5071419;27;50643;-65
2021/11/22 11:44:29;;;;;;;;;7.50;7.00;;;;;;;;5069868;28;49709;-66
2021/11/22 11:47:03;;;;;;;;;9.25;7.00;;;;;;;;5069985;28;49766;-69
2021/11/22 11:49:35;;;;;;;;;6.00;6.00;;;;;;;;5070501;28;49707;-71
2021/11/22 11:52:19;;;;;;;;;6.25;5.00;;;;;;;;5071541;28;50557;-72
2021/11/22 11:54:44;;;;;;;;;14.00;9.75;;;;;;;;5071411;28;49761;-71
2021/11/22 11:57:10;;;;;;;;;12.00;11.00;;;;;;;;5071434;28;49712;-69
2021/11/22 11:59:37;;;;;;;;;12.25;9.50;;;;;;;;5071705;28;49795;-65
2021/11/22 12:02:05;;;;;;;;;14.00;9.50;;;;;;;;5071063;27;50493;-67
2021/11/22 12:04:52;;;;;;;;;14.75;11.75;;;;;;;;5070823;28;49895;-69
2021/11/22 12:07:37;;;;;;;;;9.75;7.75;;;;;;;;5071256;27;49827;-69
2021/11/22 12:10:05;;;;;;;;;11.50;10.75;;;;;;;;5071209;27;49632;-65
2021/11/22 12:12:33;;;;;;;;;11.25;10.00;;;;;;;;5071080;28;49620;-64
2021/11/22 12:14:58;;;;;;;;;10.75;10.25;;;;;;;;5071406;27;49826;-74
2021/11/22 12:17:35;;;;;;;;;12.50;12.50;;;;;;;;5071081;28;49568;-69
2021/11/22 12:20:05;;;;;;;;;16.75;11.50;;;;;;;;5071586;27;49881;-72
2021/11/22 12:22:49;;;;;;;;;8.00;6.00;;;;;;;;5070488;27;49839;-72
2021/11/22 12:25:50;;;;;;;;;11.00;10.75;;;;;;;;5071036;28;49809;-72
2021/11/22 12:28:18;;;;;;;;;11.00;11.00;;;;;;;;5047529;28;49873;-72
2021/11/22 12:30:44;;;;;;;;;10.75;8.00;;;;;;;;5066274;28;50864;-72
2021/11/22 12:33:25;;;;;;;;;13.25;11.00;;;;;;;;5070601;28;49863;-69
2021/11/22 12:36:13;;;;;;;;;12.25;11.00;;;;;;;;5070458;27;49733;-69
2021/11/22 12:38:42;;;;;;;;;10.00;9.25;;;;;;;;5067426;28;50027;-72
2021/11/22 12:41:09;;;;;;;;;15.50;13.00;;;;;;;;5071294;27;49750;-71
2021/11/22 12:43:38;;;;;;;;;12.50;11.00;;;;;;;;5070509;28;50332;-67
2021/11/22 12:46:04;;;;;;;;;10.00;10.00;;;;;;;;5070638;28;49711;-65
2021/11/22 12:48:32;;;;;;;;;9.50;8.00;;;;;;;;5070814;27;49757;-65
2021/11/22 12:50:59;;;;;;;;;10.50;10.00;;;;;;;;5070617;28;49955;-65
2021/11/22 12:53:24;;;;;;;;;14.25;13.50;;;;;;;;5069921;28;49663;-65
2021/11/22 12:55:51;;;;;;;;;12.00;11.25;;;;;;;;5052496;28;49986;-65
2021/11/22 12:58:20;;;;;;;;;10.25;10.25;;;;;;;;5061260;28;49718;-65
2021/11/22 13:00:46;;;;;;;;;9.00;7.50;;;;;;;;5071500;27;49903;-64
2021/11/22 13:03:15;;;;;;;;;10.50;10.50;;;;;;;;5067246;27;50384;-66
2021/11/22 13:06:02;;;;;;;;;10.75;9.75;;;;;;;;5086809;27;49863;-66
2021/11/22 13:08:26;;;;;;;;;11.00;9.50;;;;;;;;5073364;27;50013;-64
2021/11/22 13:10:55;;;;;;;;;13.50;12.50;;;;;;;;5074221;28;49824;-65
2021/11/22 13:15:55;;;;;;;;;12.75;11.75;;;;;;;;5073477;27;49783;-64
2021/11/22 13:18:21;;;;;;;;;15.75;11.75;;;;;;;;5073599;28;49660;-63
2021/11/22 13:20:47;;;;;;;;;15.25;14.50;;;;;;;;5073389;28;49703;-63
2021/11/22 13:23:13;;;;;;;;;10.75;9.50;;;;;;;;5073518;28;49965;-63
2021/11/22 13:25:39;;;;;;;;;13.25;11.75;;;;;;;;5071918;28;49706;-63
2021/11/22 13:28:08;;;;;;;;;16.50;14.00;;;;;;;;5073687;28;49909;-63
2021/11/22 13:30:34;;;;;;;;;14.00;13.75;;;;;;;;5074190;28;50430;-64
2021/11/22 13:32:59;;;;;;;;;12.00;12.00;;;;;;;;5071905;28;51397;-63
2021/11/22 13:35:24;;;;;;;;;9.75;7.25;;;;;;;;5073081;28;49755;-63
2021/11/22 13:38:10;;;;;;;;;19.00;15.75;;;;;;;;5073311;28;50177;-63
2021/11/22 13:40:36;;;;;;;;;12.25;12.25;;;;;;;;5073735;28;49803;-63
2021/11/22 13:43:12;;;;;;;;;11.75;11.75;;;;;;;;5073108;28;50399;-63
2021/11/22 13:45:38;;;;;;;;;18.00;15.75;;;;;;;;5073286;28;49802;-63
2021/11/22 13:48:04;;;;;;;;;15.50;13.00;;;;;;;;5073313;28;49821;-64
2021/11/22 13:50:45;;;;;;;;;15.00;14.75;;;;;;;;5073203;28;49787;-64
2021/11/22 13:53:13;;;;;;;;;12.50;7.25;;;;;;;;5073036;28;49715;-63
2021/11/22 13:55:39;;;;;;;;;16.00;15.75;;;;;;;;5070331;28;49769;-63
2021/11/22 13:58:05;;;;;;;;;17.25;14.25;;;;;;;;5073324;28;49846;-63
2021/11/22 14:00:31;;;;;;;;;14.50;8.75;;;;;;;;5073227;27;49778;-63
2021/11/22 14:02:59;;;;;;;;;12.00;12.00;;;;;;;;5072756;27;49716;-64
2021/11/22 14:05:25;;;;;;;;;12.25;10.00;;;;;;;;5072668;27;50029;-64
2021/11/22 14:07:52;;;;;;;;;12.75;12.00;;;;;;;;5072510;27;49604;-64
2021/11/22 14:10:31;;;;;;;;;26.00;20.75;;;;;;;;5073158;27;49750;-64
2021/11/22 14:13:09;;;;;;;;;20.50;19.25;;;;;;;;5071834;28;49695;-64
2021/11/22 14:15:36;;;;;;;;;17.50;16.25;;;;;;;;5072904;27;49680;-63
2021/11/22 14:18:03;;;;;;;;;20.50;17.25;;;;;;;;5072902;27;49680;-64
2021/11/22 14:20:29;;;;;;;;;16.25;14.00;;;;;;;;5073010;27;49912;-64
2021/11/22 14:23:00;;;;;;;;;20.75;15.75;;;;;;;;5072238;27;50852;-64
2021/11/22 14:25:26;;;;;;;;;11.50;9.25;;;;;;;;5072829;27;49647;-63
2021/11/22 14:27:55;;;;;;;;;18.75;17.00;;;;;;;;5072810;27;49682;-66
2021/11/22 14:30:28;;;;;;;;;15.00;10.50;;;;;;;;5072878;27;49694;-66